createdAt,value
2022-10-12T00:00:33.315Z,3.37
2022-10-12T00:03:01.085Z,3.37
2022-10-12T00:05:28.761Z,3.31
2022-10-12T00:07:56.499Z,3.35
2022-10-12T00:10:24.248Z,3.28
2022-10-12T00:12:52.010Z,3.39
2022-10-12T00:15:21.094Z,3.47
2022-10-12T00:17:48.879Z,3.47
2022-10-12T00:20:16.607Z,3.45
2022-10-12T00:22:44.304Z,3.40
2022-10-12T00:25:12.078Z,3.40
2022-10-12T00:27:40.128Z,3.40
2022-10-12T00:30:09.496Z,3.30
2022-10-12T00:32:38.561Z,3.39
2022-10-12T00:35:06.987Z,3.39
2022-10-12T00:37:35.014Z,3.43
2022-10-12T00:40:02.965Z,3.13
2022-10-12T00:42:30.707Z,3.40
2022-10-12T00:44:58.367Z,3.38
2022-10-12T00:47:31.956Z,3.36
2022-10-12T00:50:06.217Z,3.36
2022-10-12T00:52:42.567Z,3.37
2022-10-12T00:55:13.307Z,3.31
2022-10-12T00:57:46.720Z,3.34
2022-10-12T01:00:15.676Z,3.40
2022-10-12T01:02:44.620Z,3.33
2022-10-12T01:05:14.223Z,3.19
2022-10-12T01:07:42.003Z,3.27
2022-10-12T01:10:10.496Z,3.27
2022-10-12T01:12:39.720Z,3.19
2022-10-12T01:15:08.275Z,3.28
2022-10-12T01:17:48.632Z,3.24
2022-10-12T01:20:55.055Z,3.26
2022-10-12T01:23:52.056Z,3.23
2022-10-12T01:26:40.255Z,3.14
2022-10-12T01:29:20.420Z,3.05
2022-10-12T01:31:54.823Z,3.05
2022-10-12T01:34:31.519Z,3.00
2022-10-12T01:37:06.323Z,2.88
2022-10-12T01:39:39.906Z,2.90
2022-10-12T01:42:16.025Z,2.96
2022-10-12T01:44:43.637Z,2.82
2022-10-12T01:47:12.681Z,2.70
2022-10-12T01:49:40.531Z,2.73
2022-10-12T01:52:28.169Z,2.69
2022-10-12T01:55:20.958Z,2.70
2022-10-12T01:58:06.465Z,2.68
2022-10-12T02:00:42.468Z,2.62
2022-10-12T02:03:17.365Z,2.59
2022-10-12T02:05:51.431Z,2.59
2022-10-12T02:08:24.839Z,2.63
2022-10-12T02:10:58.134Z,2.56
2022-10-12T02:13:28.535Z,2.55
2022-10-12T02:15:59.482Z,2.52
2022-10-12T02:18:30.232Z,2.55
2022-10-12T02:21:00.854Z,2.53
2022-10-12T02:23:29.766Z,2.49
2022-10-12T02:25:59.885Z,2.49
2022-10-12T02:28:30.779Z,2.46
2022-10-12T02:31:02.658Z,2.50
2022-10-12T02:33:37.655Z,2.46
2022-10-12T02:36:12.690Z,2.39
2022-10-12T02:38:44.494Z,2.42
2022-10-12T02:41:17.402Z,2.45
2022-10-12T02:43:51.898Z,2.44
2022-10-12T02:46:21.800Z,2.40
2022-10-12T02:48:51.713Z,2.45
2022-10-12T02:51:21.347Z,2.39
2022-10-12T02:53:49.193Z,2.45
2022-10-12T02:56:17.176Z,2.33
2022-10-12T02:58:46.287Z,2.46
2022-10-12T03:01:16.890Z,2.47
2022-10-12T03:03:45.223Z,2.44
2022-10-12T03:06:14.653Z,2.34
2022-10-12T03:08:42.342Z,2.44
2022-10-12T03:11:13.908Z,2.44
2022-10-12T03:13:41.763Z,2.31
2022-10-12T03:16:11.464Z,2.34
2022-10-12T03:18:39.619Z,2.40
2022-10-12T03:21:07.914Z,2.32
2022-10-12T03:23:37.000Z,2.21
2022-10-12T03:26:04.808Z,2.29
2022-10-12T03:28:32.701Z,2.22
2022-10-12T03:31:00.692Z,2.11
2022-10-12T03:33:28.482Z,2.20
2022-10-12T03:35:56.308Z,2.23
2022-10-12T03:38:23.995Z,2.10
2022-10-12T03:40:53.014Z,2.15
2022-10-12T03:43:20.763Z,2.00
2022-10-12T03:45:48.548Z,2.12
2022-10-12T03:48:16.622Z,2.02
2022-10-12T03:50:48.935Z,1.84
2022-10-12T03:53:16.984Z,2.05
2022-10-12T03:55:44.918Z,2.05
2022-10-12T03:58:14.553Z,1.97
2022-10-12T04:00:42.225Z,1.92
2022-10-12T04:03:09.917Z,1.95
2022-10-12T04:05:37.673Z,1.84
2022-10-12T04:08:05.629Z,1.90
2022-10-12T04:10:33.431Z,1.83
2022-10-12T04:13:01.362Z,1.70
2022-10-12T04:15:30.392Z,1.80
2022-10-12T04:17:58.052Z,1.84
2022-10-12T04:20:25.762Z,1.89
2022-10-12T04:22:53.496Z,1.94
2022-10-12T04:25:21.232Z,1.83
2022-10-12T04:27:48.939Z,1.80
2022-10-12T04:30:16.624Z,1.81
2022-10-12T04:32:45.655Z,1.86
2022-10-12T04:35:13.332Z,1.86
2022-10-12T04:37:41.262Z,1.85
2022-10-12T04:40:10.051Z,1.88
2022-10-12T04:42:37.698Z,1.94
2022-10-12T04:45:06.065Z,1.95
2022-10-12T04:47:35.069Z,2.01
2022-10-12T04:50:04.458Z,2.03
2022-10-12T04:52:32.150Z,2.14
2022-10-12T04:55:00.113Z,2.07
2022-10-12T04:57:27.869Z,2.09
2022-10-12T04:59:55.682Z,2.12
2022-10-12T05:02:23.306Z,2.17
2022-10-12T05:04:51.527Z,2.13
2022-10-12T05:07:20.560Z,2.26
2022-10-12T05:09:48.303Z,2.20
2022-10-12T05:12:16.389Z,2.29
2022-10-12T05:14:44.641Z,2.28
2022-10-12T05:17:12.731Z,2.32
2022-10-12T05:19:40.376Z,2.27
2022-10-12T05:22:08.167Z,2.20
2022-10-12T05:24:37.326Z,2.30
2022-10-12T05:27:05.167Z,2.30
2022-10-12T05:29:32.869Z,2.30
2022-10-12T05:32:00.595Z,2.30
2022-10-12T05:34:28.231Z,2.33
2022-10-12T05:36:55.857Z,2.30
2022-10-12T05:39:23.501Z,2.30
2022-10-12T05:41:54.261Z,2.24
2022-10-12T05:44:21.984Z,2.28
2022-10-12T05:46:49.797Z,2.02
2022-10-12T05:49:17.550Z,2.26
2022-10-12T05:51:45.259Z,2.14
2022-10-12T05:54:13.009Z,2.14
2022-10-12T05:56:40.947Z,2.20
2022-10-12T05:59:10.043Z,2.16
2022-10-12T06:01:37.886Z,2.24
2022-10-12T06:04:05.917Z,2.22
2022-10-12T06:06:33.749Z,2.19
2022-10-12T06:09:01.457Z,2.28
2022-10-12T06:11:31.535Z,2.19
2022-10-12T06:14:03.162Z,2.09
2022-10-12T06:16:32.393Z,1.96
2022-10-12T06:19:00.696Z,2.16
2022-10-12T06:21:33.443Z,2.12
2022-10-12T06:24:02.025Z,2.10
2022-10-12T06:26:29.958Z,2.04
2022-10-12T06:28:58.196Z,2.10
2022-10-12T06:31:25.991Z,2.00
2022-10-12T06:33:55.099Z,2.08
2022-10-12T06:36:23.711Z,2.12
2022-10-12T06:38:51.536Z,2.17
2022-10-12T06:41:19.273Z,2.17
2022-10-12T06:43:47.036Z,2.40
2022-10-12T06:46:14.683Z,2.45
2022-10-12T06:48:42.467Z,2.48
2022-10-12T06:51:11.520Z,2.70
2022-10-12T06:53:39.184Z,2.88
2022-10-12T06:56:07.657Z,3.09
2022-10-12T06:58:35.356Z,3.42
2022-10-12T07:01:04.782Z,3.51
2022-10-12T07:03:32.899Z,3.91
2022-10-12T07:06:07.447Z,4.15
2022-10-12T07:08:36.713Z,4.39
2022-10-12T07:11:06.337Z,4.59
2022-10-12T07:13:34.414Z,4.71
2022-10-12T07:16:02.570Z,4.77
2022-10-12T07:18:30.257Z,4.84
2022-10-12T07:20:59.785Z,4.87
2022-10-12T07:23:27.816Z,4.93
2022-10-12T07:25:57.197Z,5.18
2022-10-12T07:28:25.320Z,5.43
2022-10-12T07:30:53.257Z,5.62
2022-10-12T07:33:20.970Z,5.69
2022-10-12T07:36:12.645Z,5.80
2022-10-12T07:38:44.421Z,5.83
2022-10-12T07:41:14.580Z,5.92
2022-10-12T07:43:43.078Z,5.99
2022-10-12T07:46:11.236Z,6.31
2022-10-12T07:48:40.268Z,6.68
2022-10-12T07:51:09.896Z,7.08
2022-10-12T07:53:38.731Z,7.26
2022-10-12T07:56:09.498Z,7.64
2022-10-12T07:58:38.622Z,7.98
2022-10-12T08:01:07.074Z,8.30
2022-10-12T08:03:34.962Z,8.59
2022-10-12T08:06:10.557Z,8.91
2022-10-12T08:08:38.281Z,9.18
2022-10-12T08:11:07.457Z,9.49
2022-10-12T08:13:35.913Z,9.82
2022-10-12T08:16:06.566Z,10.14
2022-10-12T08:18:34.354Z,10.46
2022-10-12T08:21:04.551Z,10.65
2022-10-12T08:23:32.220Z,10.75
2022-10-12T08:25:59.951Z,10.84
2022-10-12T08:28:27.841Z,10.93
2022-10-12T08:30:55.787Z,11.09
2022-10-12T08:33:25.098Z,10.77
2022-10-12T08:35:52.856Z,10.67
2022-10-12T08:38:20.630Z,10.94
2022-10-12T08:40:53.360Z,11.02
2022-10-12T08:43:31.735Z,11.26
2022-10-12T08:46:02.698Z,11.50
2022-10-12T08:48:36.117Z,11.67
2022-10-12T08:51:08.432Z,11.85
2022-10-12T08:53:48.874Z,12.00
2022-10-12T08:56:18.219Z,12.23
2022-10-12T08:58:47.264Z,12.31
2022-10-12T09:01:22.526Z,12.36
2022-10-12T09:04:02.288Z,12.53
2022-10-12T09:06:34.821Z,12.55
2022-10-12T09:09:11.116Z,12.62
2022-10-12T09:11:49.975Z,12.84
2022-10-12T09:14:23.242Z,12.49
2022-10-12T09:16:52.492Z,12.71
2022-10-12T09:19:24.418Z,12.51
2022-10-12T09:21:52.176Z,12.42
2022-10-12T09:24:23.494Z,12.41
2022-10-12T09:26:53.341Z,12.71
2022-10-12T09:29:25.335Z,12.94
2022-10-12T09:32:14.534Z,13.18
2022-10-12T09:34:45.058Z,13.32
2022-10-12T09:38:51.182Z,13.16
2022-10-12T09:46:49.887Z,13.09
2022-10-12T09:48:57.628Z,13.47
2022-10-12T09:51:27.330Z,13.63
2022-10-12T09:53:58.760Z,12.80
2022-10-12T09:56:30.713Z,13.11
2022-10-12T09:59:02.069Z,13.52
2022-10-12T10:01:31.299Z,13.48
2022-10-12T10:04:11.332Z,13.78
2022-10-12T10:06:43.154Z,14.17
2022-10-12T10:09:28.491Z,14.24
2022-10-12T10:11:56.898Z,13.40
2022-10-12T10:14:24.780Z,13.03
2022-10-12T10:16:54.705Z,13.57
2022-10-12T10:19:26.450Z,13.93
2022-10-12T10:21:56.333Z,13.73
2022-10-12T10:24:28.485Z,13.86
2022-10-12T10:26:58.796Z,14.15
2022-10-12T10:29:36.844Z,14.41
2022-10-12T10:32:24.179Z,14.76
2022-10-12T10:35:18.420Z,14.61
2022-10-12T10:37:50.476Z,14.86
2022-10-12T10:40:21.687Z,15.25
2022-10-12T10:42:52.537Z,15.41
2022-10-12T10:45:26.364Z,15.39
2022-10-12T10:48:01.333Z,14.96
2022-10-12T10:50:35.348Z,15.00
2022-10-12T10:53:08.355Z,14.82
2022-10-12T10:55:46.016Z,14.75
2022-10-12T10:58:23.479Z,14.83
2022-10-12T11:00:54.381Z,15.21
2022-10-12T11:03:27.360Z,15.37
2022-10-12T11:05:58.049Z,15.38
2022-10-12T11:08:30.830Z,15.31
2022-10-12T11:11:02.792Z,14.90
2022-10-12T11:13:35.204Z,15.16
2022-10-12T11:16:09.287Z,15.02
2022-10-12T11:18:41.943Z,15.02
2022-10-12T11:21:13.765Z,15.35
2022-10-12T11:23:48.930Z,15.69
2022-10-12T11:26:25.416Z,15.62
2022-10-12T11:28:54.551Z,14.93
2022-10-12T11:31:25.222Z,14.96
2022-10-12T11:33:55.096Z,15.24
2022-10-12T11:36:27.154Z,15.56
2022-10-12T11:39:04.416Z,16.09
2022-10-12T11:42:03.142Z,15.94
2022-10-12T11:44:41.024Z,15.80
2022-10-12T11:47:16.052Z,16.12
2022-10-12T11:49:52.020Z,15.88
2022-10-12T11:52:27.836Z,16.07
2022-10-12T11:55:05.644Z,16.07
2022-10-12T11:57:37.881Z,15.93
2022-10-12T12:00:08.408Z,16.30
2022-10-12T12:02:41.706Z,16.48
2022-10-12T12:05:16.565Z,16.55
2022-10-12T12:07:49.789Z,16.50
2022-10-12T12:10:54.555Z,16.76
2022-10-12T12:13:27.125Z,16.57
2022-10-12T12:16:32.633Z,16.42
2022-10-12T12:19:37.147Z,15.81
2022-10-12T12:22:28.719Z,15.69
2022-10-12T12:25:31.670Z,15.84
2022-10-12T12:28:07.793Z,15.79
2022-10-12T12:30:38.989Z,16.08
2022-10-12T12:33:27.920Z,16.25
2022-10-12T12:35:57.999Z,16.49
2022-10-12T12:38:28.702Z,16.47
2022-10-12T12:41:02.951Z,16.24
2022-10-12T12:43:54.834Z,16.33
2022-10-12T12:46:24.002Z,16.11
2022-10-12T12:49:24.229Z,15.95
2022-10-12T12:51:55.041Z,15.93
2022-10-12T12:54:23.863Z,16.32
2022-10-12T12:57:13.137Z,16.13
2022-10-12T13:00:13.308Z,15.68
2022-10-12T13:03:23.187Z,15.99
2022-10-12T13:06:21.673Z,15.36
2022-10-12T13:09:31.225Z,15.75
2022-10-12T13:12:40.105Z,15.39
2022-10-12T13:15:35.251Z,15.18
2022-10-12T13:18:48.071Z,15.18
2022-10-12T13:21:19.866Z,15.56
2022-10-12T13:23:50.212Z,15.79
2022-10-12T13:26:23.034Z,16.29
2022-10-12T13:28:53.455Z,16.08
2022-10-12T13:31:27.082Z,15.84
2022-10-12T13:34:00.775Z,15.86
2022-10-12T13:36:31.154Z,15.72
2022-10-12T13:39:00.274Z,15.63
2022-10-12T13:41:30.481Z,15.85
2022-10-12T13:43:59.950Z,15.54
2022-10-12T13:46:41.534Z,15.42
2022-10-12T13:49:17.759Z,15.82
2022-10-12T13:51:47.559Z,16.02
2022-10-12T13:54:17.142Z,16.24
2022-10-12T13:56:46.001Z,16.15
2022-10-12T13:59:19.099Z,16.57
2022-10-12T14:01:53.989Z,16.41
2022-10-12T14:04:21.764Z,15.87
2022-10-12T14:06:56.724Z,15.89
2022-10-12T14:09:26.748Z,15.74
2022-10-12T14:11:56.711Z,15.86
2022-10-12T14:14:32.842Z,16.23
2022-10-12T14:17:02.267Z,15.85
2022-10-12T14:19:37.077Z,16.11
2022-10-12T14:22:05.222Z,16.22
2022-10-12T14:24:35.318Z,16.18
2022-10-12T14:27:05.039Z,16.03
2022-10-12T14:29:36.772Z,16.22
2022-10-12T14:32:07.944Z,16.10
2022-10-12T14:34:39.085Z,15.80
2022-10-12T14:37:20.277Z,15.96
2022-10-12T14:39:49.883Z,16.08
2022-10-12T14:42:21.966Z,16.07
2022-10-12T14:44:50.231Z,15.56
2022-10-12T14:47:23.079Z,15.68
2022-10-12T14:49:53.059Z,15.70
2022-10-12T14:52:24.328Z,15.66
2022-10-12T14:54:52.823Z,15.57
2022-10-12T14:57:21.406Z,15.24
2022-10-12T14:59:49.116Z,15.33
2022-10-12T15:02:20.510Z,15.36
2022-10-12T15:04:49.064Z,15.27
2022-10-12T15:07:19.758Z,15.14
2022-10-12T15:09:48.294Z,15.23
2022-10-12T15:12:17.955Z,15.08
2022-10-12T15:14:46.379Z,14.88
2022-10-12T15:17:18.157Z,14.80
2022-10-12T15:19:50.904Z,14.73
2022-10-12T15:22:20.551Z,14.68
2022-10-12T15:24:49.080Z,14.70
2022-10-12T15:27:16.888Z,14.65
2022-10-12T15:29:45.704Z,14.74
2022-10-12T15:32:14.845Z,14.79
2022-10-12T15:34:42.956Z,14.80
2022-10-12T15:37:12.257Z,14.84
2022-10-12T15:39:41.011Z,14.63
2022-10-12T15:42:08.711Z,14.64
2022-10-12T15:44:40.663Z,14.50
2022-10-12T15:47:10.039Z,14.35
2022-10-12T15:49:38.017Z,14.31
2022-10-12T15:52:10.048Z,14.35
2022-10-12T15:54:39.101Z,14.18
2022-10-12T15:57:07.341Z,14.23
2022-10-12T15:59:35.224Z,14.13
2022-10-12T16:02:03.118Z,14.16
2022-10-12T16:04:30.748Z,14.20
2022-10-12T16:07:01.304Z,14.10
2022-10-12T16:09:29.044Z,14.07
2022-10-12T16:11:58.095Z,13.89
2022-10-12T16:14:25.937Z,13.86
2022-10-12T16:16:53.699Z,13.55
2022-10-12T16:19:21.356Z,13.34
2022-10-12T16:21:49.094Z,13.37
2022-10-12T16:24:16.843Z,13.08
2022-10-12T16:26:47.191Z,13.04
2022-10-12T16:29:16.421Z,13.03
2022-10-12T16:31:44.062Z,13.03
2022-10-12T16:34:11.788Z,12.90
2022-10-12T16:36:39.717Z,12.55
2022-10-12T16:39:07.403Z,12.38
2022-10-12T16:41:35.111Z,12.28
2022-10-12T16:44:04.345Z,12.15
2022-10-12T16:46:33.371Z,12.37
2022-10-12T16:49:01.110Z,12.20
2022-10-12T16:51:28.783Z,12.06
2022-10-12T16:53:57.432Z,12.09
2022-10-12T16:56:25.115Z,12.05
2022-10-12T16:58:52.767Z,12.00
2022-10-12T17:01:20.618Z,11.86
2022-10-12T17:03:49.769Z,11.74
2022-10-12T17:06:17.462Z,11.54
2022-10-12T17:08:45.147Z,11.50
2022-10-12T17:11:16.344Z,11.35
2022-10-12T17:13:48.790Z,11.41
2022-10-12T17:16:34.741Z,11.22
2022-10-12T17:19:04.527Z,11.11
2022-10-12T17:21:32.403Z,11.10
2022-10-12T17:24:01.249Z,10.99
2022-10-12T17:26:29.078Z,11.05
2022-10-12T17:28:56.768Z,10.95
2022-10-12T17:31:24.563Z,10.93
2022-10-12T17:33:52.282Z,10.74
2022-10-12T17:36:25.703Z,10.54
2022-10-12T17:38:56.647Z,10.41
2022-10-12T17:41:24.351Z,10.28
2022-10-12T17:43:52.099Z,10.23
2022-10-12T17:46:22.568Z,10.17
2022-10-12T17:48:50.735Z,10.07
2022-10-12T17:51:18.473Z,9.90
2022-10-12T17:53:47.552Z,9.88
2022-10-12T17:56:17.982Z,9.82
2022-10-12T17:58:45.634Z,9.86
2022-10-12T18:01:15.482Z,9.80
2022-10-12T18:03:46.494Z,9.75
2022-10-12T18:06:16.367Z,9.65
2022-10-12T18:08:44.662Z,9.69
2022-10-12T18:11:15.762Z,9.66
2022-10-12T18:13:47.949Z,9.58
2022-10-12T18:16:17.389Z,9.36
2022-10-12T18:18:45.291Z,9.48
2022-10-12T18:21:14.434Z,9.46
2022-10-12T18:23:42.338Z,9.51
2022-10-12T18:26:13.893Z,9.49
2022-10-12T18:28:42.500Z,9.47
2022-10-12T18:31:17.201Z,9.35
2022-10-12T18:33:45.069Z,9.27
2022-10-12T18:36:13.607Z,9.27
2022-10-12T18:38:41.612Z,9.11
2022-10-12T18:41:11.683Z,8.98
2022-10-12T18:43:41.366Z,8.88
2022-10-12T18:46:11.231Z,8.82
2022-10-12T18:48:39.561Z,8.69
2022-10-12T18:51:09.369Z,8.69
2022-10-12T18:53:37.107Z,8.56
2022-10-12T18:56:05.676Z,8.52
2022-10-12T18:58:33.561Z,8.35
2022-10-12T19:01:02.714Z,8.37
2022-10-12T19:03:30.313Z,8.19
2022-10-12T19:06:05.376Z,8.11
2022-10-12T19:08:33.157Z,8.19
2022-10-12T19:11:00.850Z,8.15
2022-10-12T19:13:28.592Z,8.02
2022-10-12T19:15:56.591Z,7.99
2022-10-12T19:18:25.864Z,7.99
2022-10-12T19:20:53.656Z,7.87
2022-10-12T19:23:21.382Z,7.90
2022-10-12T19:25:49.242Z,8.02
2022-10-12T19:28:17.142Z,7.94
2022-10-12T19:30:44.907Z,7.80
2022-10-12T19:33:12.660Z,7.82
2022-10-12T19:35:41.877Z,7.66
2022-10-12T19:38:09.508Z,7.68
2022-10-12T19:40:37.949Z,7.62
2022-10-12T19:43:06.829Z,7.56
2022-10-12T19:45:39.247Z,7.52
2022-10-12T19:48:07.793Z,7.48
2022-10-12T19:50:36.357Z,7.60
2022-10-12T19:53:05.600Z,7.62
2022-10-12T19:55:34.092Z,7.48
2022-10-12T19:58:02.460Z,7.49
2022-10-12T20:00:30.225Z,7.36
2022-10-12T20:02:58.075Z,7.36
2022-10-12T20:05:25.802Z,7.18
2022-10-12T20:07:53.584Z,7.15
2022-10-12T20:10:22.721Z,7.02
2022-10-12T20:12:50.455Z,7.17
2022-10-12T20:15:18.092Z,7.14
2022-10-12T20:17:45.862Z,7.10
2022-10-12T20:20:13.653Z,7.16
2022-10-12T20:22:42.310Z,7.16
2022-10-12T20:25:10.159Z,7.19
2022-10-12T20:27:39.486Z,6.99
2022-10-12T20:30:08.213Z,7.14
2022-10-12T20:32:36.015Z,7.13
2022-10-12T20:35:04.273Z,7.14
2022-10-12T20:37:33.043Z,7.12
2022-10-12T20:40:00.832Z,6.92
2022-10-12T20:42:28.685Z,7.14
2022-10-12T20:44:58.161Z,7.12
2022-10-12T20:47:26.989Z,7.08
2022-10-12T20:49:54.833Z,6.98
2022-10-12T20:52:22.735Z,6.95
2022-10-12T20:54:51.933Z,6.93
2022-10-12T20:57:19.733Z,6.82
2022-10-12T20:59:48.980Z,6.81
2022-10-12T21:02:18.785Z,6.85
2022-10-12T21:04:49.159Z,6.85
2022-10-12T21:07:17.900Z,6.78
2022-10-12T21:09:45.891Z,6.74
2022-10-12T21:12:13.544Z,6.67
2022-10-12T21:14:41.266Z,6.54
2022-10-12T21:17:09.111Z,6.51
2022-10-12T21:19:38.226Z,6.42
2022-10-12T21:22:05.990Z,6.37
2022-10-12T21:24:33.733Z,6.34
2022-10-12T21:27:01.471Z,6.40
2022-10-12T21:29:29.207Z,6.28
2022-10-12T21:31:56.893Z,6.27
2022-10-12T21:34:24.694Z,6.33
2022-10-12T21:36:53.840Z,6.36
2022-10-12T21:39:21.597Z,6.21
2022-10-12T21:41:49.279Z,6.16
2022-10-12T21:44:16.899Z,6.23
2022-10-12T21:46:44.515Z,6.18
2022-10-12T21:49:12.883Z,6.22
2022-10-12T21:51:40.883Z,6.14
2022-10-12T21:54:09.999Z,6.21
2022-10-12T21:56:38.113Z,6.08
2022-10-12T21:59:06.583Z,6.02
2022-10-12T22:01:36.633Z,6.02
2022-10-12T22:04:06.480Z,5.99
2022-10-12T22:06:35.623Z,6.03
2022-10-12T22:09:06.070Z,6.00
2022-10-12T22:11:36.560Z,6.02
2022-10-12T22:14:06.683Z,6.04
2022-10-12T22:16:34.520Z,6.03
2022-10-12T22:19:04.660Z,5.90
2022-10-12T22:21:32.628Z,5.89
2022-10-12T22:24:02.012Z,6.06
2022-10-12T22:26:30.455Z,5.95
2022-10-12T22:29:00.811Z,6.07
2022-10-12T22:31:29.017Z,6.01
2022-10-12T22:33:57.319Z,6.03
2022-10-12T22:36:25.022Z,6.01
2022-10-12T22:38:52.837Z,5.82
2022-10-12T22:41:22.604Z,6.01
2022-10-12T22:43:51.515Z,5.96
2022-10-12T22:46:22.643Z,6.10
2022-10-12T22:48:50.630Z,6.12
2022-10-12T22:51:21.535Z,6.12
2022-10-12T22:53:49.963Z,6.04
2022-10-12T22:56:19.431Z,6.28
2022-10-12T22:58:48.956Z,6.22
2022-10-12T23:01:18.471Z,6.32
2022-10-12T23:03:47.541Z,6.41
2022-10-12T23:06:16.699Z,6.48
2022-10-12T23:08:44.812Z,6.57
2022-10-12T23:11:14.744Z,6.65
2022-10-12T23:13:43.279Z,6.79
2022-10-12T23:16:13.223Z,6.84
2022-10-12T23:18:41.854Z,7.08
2022-10-12T23:21:12.771Z,7.17
2022-10-12T23:23:41.832Z,7.52
2022-10-12T23:26:11.623Z,7.57
2022-10-12T23:28:39.710Z,7.38
2022-10-12T23:31:09.003Z,7.54
2022-10-12T23:33:36.725Z,7.56
2022-10-12T23:36:06.711Z,7.63
2022-10-12T23:38:38.020Z,7.75
2022-10-12T23:41:06.204Z,7.90
2022-10-12T23:43:34.650Z,7.94
2022-10-12T23:46:02.718Z,8.15
2022-10-12T23:48:30.855Z,8.30
2022-10-12T23:50:58.703Z,8.50
2022-10-12T23:53:26.791Z,8.60
2022-10-12T23:55:55.918Z,8.61
2022-10-12T23:58:23.891Z,8.62
